createdAt,value
2019-03-13T00:01:23.978Z,50.93
2019-03-13T00:03:53.555Z,42.43
2019-03-13T00:06:22.452Z,45.83
2019-03-13T00:08:51.885Z,46.97
2019-03-13T00:11:20.721Z,44.73
2019-03-13T00:13:51.507Z,49.63
2019-03-13T00:16:20.346Z,46.70
2019-03-13T00:18:49.443Z,43.97
2019-03-13T00:21:18.233Z,48.67
2019-03-13T00:23:47.085Z,48.93
2019-03-13T00:26:16.078Z,49.57
2019-03-13T00:28:44.867Z,45.97
2019-03-13T00:31:13.726Z,44.33
2019-03-13T00:33:42.620Z,44.63
2019-03-13T00:36:11.609Z,42.30
2019-03-13T00:38:40.287Z,48.90
2019-03-13T00:41:09.225Z,42.83
2019-03-13T00:43:37.982Z,41.63
2019-03-13T00:46:07.179Z,40.13
2019-03-13T00:48:35.846Z,41.90
2019-03-13T00:51:04.616Z,44.47
2019-03-13T00:53:33.439Z,42.33
2019-03-13T00:56:02.328Z,42.50
2019-03-13T00:58:31.071Z,42.73
2019-03-13T01:01:07.343Z,49.07
2019-03-13T01:03:41.252Z,36.37
2019-03-13T01:06:14.432Z,39.53
2019-03-13T01:08:50.543Z,43.13
2019-03-13T01:11:19.676Z,40.63
2019-03-13T01:13:48.430Z,40.37
2019-03-13T01:16:17.250Z,47.67
2019-03-13T01:18:46.937Z,42.87
2019-03-13T01:21:15.747Z,44.57
2019-03-13T01:23:44.725Z,46.93
2019-03-13T01:26:14.269Z,42.77
2019-03-13T01:28:42.977Z,48.23
2019-03-13T01:31:19.488Z,44.40
2019-03-13T01:33:48.665Z,42.77
2019-03-13T01:36:17.412Z,41.77
2019-03-13T01:38:46.167Z,47.63
2019-03-13T01:41:14.995Z,45.27
2019-03-13T01:43:43.839Z,46.57
2019-03-13T01:46:12.839Z,48.67
2019-03-13T01:48:44.442Z,47.30
2019-03-13T01:51:13.398Z,42.13
2019-03-13T01:53:42.934Z,45.10
2019-03-13T01:56:11.774Z,48.03
2019-03-13T01:58:41.253Z,46.13
2019-03-13T02:01:10.934Z,57.40
2019-03-13T02:03:39.774Z,44.93
2019-03-13T02:06:08.510Z,47.00
2019-03-13T02:08:37.391Z,48.70
2019-03-13T02:11:06.140Z,43.30
2019-03-13T02:13:35.110Z,47.77
2019-03-13T02:16:04.044Z,55.77
2019-03-13T02:18:35.462Z,47.60
2019-03-13T02:21:03.397Z,55.73
2019-03-13T02:23:32.223Z,55.13
2019-03-13T02:26:03.588Z,53.33
2019-03-13T02:28:32.308Z,51.17
2019-03-13T02:31:01.302Z,55.67
2019-03-13T02:33:30.119Z,51.83
2019-03-13T02:35:59.525Z,52.40
2019-03-13T02:38:28.459Z,49.07
2019-03-13T02:40:57.455Z,56.67
2019-03-13T02:43:26.241Z,50.57
2019-03-13T02:45:57.512Z,53.57
2019-03-13T02:48:25.601Z,49.17
2019-03-13T02:50:57.668Z,60.53
2019-03-13T02:53:24.813Z,57.33
2019-03-13T02:55:53.537Z,62.23
2019-03-13T02:58:22.411Z,53.17
2019-03-13T03:01:01.764Z,44.80
2019-03-13T03:03:32.115Z,49.77
2019-03-13T03:06:01.466Z,50.03
2019-03-13T03:08:30.284Z,55.57
2019-03-13T03:10:59.076Z,51.73
2019-03-13T03:13:27.787Z,49.90
2019-03-13T03:15:56.733Z,59.57
2019-03-13T03:18:25.639Z,49.43
2019-03-13T03:20:54.414Z,54.30
2019-03-13T03:23:23.115Z,50.20
2019-03-13T03:25:51.836Z,45.53
2019-03-13T03:28:23.595Z,46.50
2019-03-13T03:30:52.381Z,48.67
2019-03-13T03:33:21.279Z,52.30
2019-03-13T03:35:50.476Z,49.27
2019-03-13T03:38:20.006Z,50.40
2019-03-13T03:40:49.002Z,48.03
2019-03-13T03:43:17.851Z,44.80
2019-03-13T03:45:47.419Z,39.10
2019-03-13T03:48:17.766Z,41.73
2019-03-13T03:50:48.013Z,40.57
2019-03-13T03:53:16.817Z,41.33
2019-03-13T03:55:45.895Z,47.63
2019-03-13T03:58:14.784Z,46.83
2019-03-13T04:00:43.458Z,44.47
2019-03-13T04:03:12.803Z,37.23
2019-03-13T04:05:41.997Z,42.83
2019-03-13T04:08:13.661Z,44.77
2019-03-13T04:10:42.445Z,45.43
2019-03-13T04:13:11.118Z,38.90
2019-03-13T04:15:40.224Z,35.10
2019-03-13T04:18:09.799Z,40.17
2019-03-13T04:20:38.586Z,36.77
2019-03-13T04:23:08.174Z,35.10
2019-03-13T04:25:36.988Z,44.00
2019-03-13T04:28:06.585Z,39.53
2019-03-13T04:30:35.315Z,36.33
2019-03-13T04:33:04.170Z,37.10
2019-03-13T04:35:33.273Z,40.50
2019-03-13T04:38:01.913Z,39.00
2019-03-13T04:40:30.643Z,44.20
2019-03-13T04:42:59.553Z,31.37
2019-03-13T04:45:28.407Z,34.67
2019-03-13T04:47:57.142Z,34.57
2019-03-13T04:50:27.684Z,32.37
2019-03-13T04:52:58.495Z,33.13
2019-03-13T04:55:27.192Z,29.87
2019-03-13T04:57:55.934Z,31.70
2019-03-13T05:00:25.993Z,37.83
2019-03-13T05:02:54.984Z,36.60
2019-03-13T05:05:43.330Z,37.60
2019-03-13T05:08:18.156Z,37.87
2019-03-13T05:10:47.293Z,31.50
2019-03-13T05:13:15.951Z,33.30
2019-03-13T05:15:44.565Z,35.60
2019-03-13T05:18:13.313Z,31.90
2019-03-13T05:20:42.453Z,41.33
2019-03-13T05:23:11.071Z,29.80
2019-03-13T05:25:39.767Z,30.77
2019-03-13T05:28:08.668Z,32.83
2019-03-13T05:30:37.400Z,29.27
2019-03-13T05:33:06.243Z,29.90
2019-03-13T05:35:35.479Z,34.13
2019-03-13T05:38:04.194Z,34.60
2019-03-13T05:40:33.620Z,31.30
2019-03-13T05:43:02.447Z,31.00
2019-03-13T05:45:32.402Z,31.53
2019-03-13T05:48:01.244Z,31.10
2019-03-13T05:50:31.567Z,32.87
2019-03-13T05:53:02.380Z,29.77
2019-03-13T05:55:31.147Z,33.20
2019-03-13T05:58:00.034Z,29.43
2019-03-13T06:00:30.309Z,27.97
2019-03-13T06:02:58.997Z,25.43
2019-03-13T06:05:27.861Z,29.90
2019-03-13T06:07:56.655Z,27.80
2019-03-13T06:10:25.311Z,25.23
2019-03-13T06:12:55.508Z,27.87
2019-03-13T06:15:24.294Z,23.93
2019-03-13T06:17:53.647Z,23.93
2019-03-13T06:20:22.478Z,24.83
2019-03-13T06:22:51.172Z,25.93
2019-03-13T06:25:19.824Z,26.27
2019-03-13T06:27:48.709Z,26.27
2019-03-13T06:30:18.673Z,24.13
2019-03-13T06:32:51.186Z,24.80
2019-03-13T06:35:19.952Z,24.80
2019-03-13T06:37:49.415Z,25.70
2019-03-13T06:40:21.996Z,25.37
2019-03-13T06:42:50.650Z,21.73
2019-03-13T06:45:23.306Z,26.00
2019-03-13T06:47:52.565Z,24.73
2019-03-13T06:50:23.535Z,26.60
2019-03-13T06:52:52.475Z,25.20
2019-03-13T06:55:22.872Z,24.00
2019-03-13T06:57:51.537Z,30.50
2019-03-13T07:00:31.057Z,22.67
2019-03-13T07:03:08.432Z,22.73
2019-03-13T07:05:40.217Z,25.03
2019-03-13T07:08:14.969Z,21.57
2019-03-13T07:11:01.910Z,24.40
2019-03-13T07:13:38.410Z,20.83
2019-03-13T07:16:08.787Z,24.40
2019-03-13T07:18:39.120Z,21.43
2019-03-13T07:21:10.410Z,23.90
2019-03-13T07:23:50.392Z,35.00
2019-03-13T07:26:29.159Z,21.73
2019-03-13T07:29:11.379Z,17.43
2019-03-13T07:31:50.812Z,17.77
2019-03-13T07:34:39.222Z,20.90
2019-03-13T07:37:09.813Z,17.70
2019-03-13T07:39:41.910Z,19.43
2019-03-13T07:42:24.712Z,17.70
2019-03-13T07:44:57.858Z,18.20
2019-03-13T07:47:29.443Z,17.83
2019-03-13T07:50:03.173Z,16.33
2019-03-13T07:52:42.715Z,24.20
2019-03-13T07:55:13.740Z,14.57
2019-03-13T07:57:53.813Z,13.27
2019-03-13T08:00:34.842Z,39.67
2019-03-13T08:03:11.605Z,17.50
2019-03-13T08:05:44.728Z,26.53
2019-03-13T08:08:34.263Z,19.57
2019-03-13T08:11:10.779Z,14.57
2019-03-13T08:13:43.073Z,18.37
2019-03-13T08:16:16.248Z,17.47
2019-03-13T08:18:49.571Z,25.77
2019-03-13T08:21:30.468Z,17.83
2019-03-13T08:24:14.296Z,14.47
2019-03-13T08:26:50.794Z,16.67
2019-03-13T08:29:23.046Z,20.87
2019-03-13T08:31:54.741Z,21.87
2019-03-13T08:34:31.289Z,18.30
2019-03-13T08:37:19.365Z,17.20
2019-03-13T08:39:56.856Z,15.63
2019-03-13T08:42:30.124Z,18.57
2019-03-13T08:45:00.604Z,17.53
2019-03-13T08:47:30.888Z,18.03
2019-03-13T08:50:01.392Z,20.97
2019-03-13T08:52:35.304Z,18.13
2019-03-13T08:55:23.022Z,28.30
2019-03-13T08:57:59.574Z,22.87
2019-03-13T09:00:41.903Z,15.90
2019-03-13T09:03:28.426Z,18.87
2019-03-13T09:06:04.685Z,19.87
2019-03-13T09:08:46.687Z,20.37
2019-03-13T09:11:22.959Z,16.17
2019-03-13T09:13:59.027Z,15.30
2019-03-13T09:16:31.191Z,18.07
2019-03-13T09:19:01.553Z,14.23
2019-03-13T09:21:38.056Z,19.13
2019-03-13T09:24:14.746Z,16.07
2019-03-13T09:26:45.169Z,19.57
2019-03-13T09:29:32.355Z,25.27
2019-03-13T09:32:08.457Z,17.17
2019-03-13T09:34:38.705Z,14.50
2019-03-13T09:37:08.960Z,18.87
2019-03-13T09:39:42.464Z,17.70
2019-03-13T09:42:12.911Z,20.87
2019-03-13T09:44:43.145Z,19.37
2019-03-13T09:47:13.453Z,15.20
2019-03-13T09:49:44.790Z,16.13
2019-03-13T09:52:15.043Z,14.63
2019-03-13T09:54:54.224Z,15.33
2019-03-13T09:57:41.177Z,15.63
2019-03-13T10:00:17.232Z,20.90
2019-03-13T10:02:48.558Z,18.70
2019-03-13T10:05:22.709Z,28.17
2019-03-13T10:07:53.142Z,18.90
2019-03-13T10:10:29.924Z,26.33
2019-03-13T10:13:00.941Z,15.30
2019-03-13T10:15:50.196Z,17.00
2019-03-13T10:18:26.159Z,17.37
2019-03-13T10:20:58.318Z,22.33
2019-03-13T10:23:28.683Z,18.07
2019-03-13T10:26:04.879Z,17.03
2019-03-13T10:28:40.352Z,30.03
2019-03-13T10:31:12.262Z,20.37
2019-03-13T10:33:46.780Z,16.27
2019-03-13T10:36:19.981Z,24.63
2019-03-13T10:39:02.478Z,18.27
2019-03-13T10:41:32.781Z,15.53
2019-03-13T10:44:19.674Z,12.37
2019-03-13T10:46:53.023Z,13.20
2019-03-13T10:49:24.241Z,28.43
2019-03-13T10:51:59.379Z,17.97
2019-03-13T10:54:47.944Z,15.20
2019-03-13T10:57:24.718Z,29.40
2019-03-13T10:59:55.096Z,18.73
2019-03-13T11:02:29.180Z,15.17
2019-03-13T11:04:59.542Z,16.57
2019-03-13T11:07:46.826Z,17.70
2019-03-13T11:10:17.184Z,16.67
2019-03-13T11:13:03.875Z,18.80
2019-03-13T11:15:43.396Z,17.50
2019-03-13T11:18:18.099Z,19.60
2019-03-13T11:20:51.546Z,17.50
2019-03-13T11:23:23.199Z,17.13
2019-03-13T11:26:00.352Z,29.47
2019-03-13T11:28:36.174Z,38.30
2019-03-13T11:31:09.978Z,30.73
2019-03-13T11:33:46.835Z,19.23
2019-03-13T11:36:20.136Z,13.40
2019-03-13T11:38:50.491Z,15.70
2019-03-13T11:41:20.871Z,19.73
2019-03-13T11:43:51.186Z,18.73
2019-03-13T11:46:30.786Z,16.10
2019-03-13T11:49:04.282Z,17.00
2019-03-13T11:51:37.697Z,17.87
2019-03-13T11:54:11.037Z,18.00
2019-03-13T11:56:59.876Z,18.80
2019-03-13T11:59:30.303Z,29.90
2019-03-13T12:02:06.619Z,24.40
2019-03-13T12:04:45.293Z,26.17
2019-03-13T12:07:22.283Z,19.53
2019-03-13T12:09:55.156Z,20.80
2019-03-13T12:12:25.619Z,23.07
2019-03-13T12:15:00.071Z,22.57
2019-03-13T12:17:33.229Z,19.90
2019-03-13T12:20:06.066Z,19.87
2019-03-13T12:22:42.328Z,18.13
2019-03-13T12:25:14.022Z,24.70
2019-03-13T12:27:50.739Z,18.90
2019-03-13T12:30:21.781Z,21.40
2019-03-13T12:33:08.523Z,21.00
2019-03-13T12:35:38.908Z,30.97
2019-03-13T12:38:09.580Z,37.07
2019-03-13T12:40:45.755Z,21.03
2019-03-13T12:43:16.436Z,21.57
2019-03-13T12:45:52.556Z,20.40
2019-03-13T12:48:41.801Z,21.37
2019-03-13T12:51:18.560Z,19.73
2019-03-13T12:53:49.023Z,19.60
2019-03-13T12:56:19.629Z,21.40
2019-03-13T12:58:55.953Z,22.53
2019-03-13T13:01:29.106Z,18.10
2019-03-13T13:04:08.087Z,16.27
2019-03-13T13:06:38.584Z,17.70
2019-03-13T13:09:08.881Z,17.50
2019-03-13T13:11:44.967Z,18.70
2019-03-13T13:14:32.894Z,16.63
2019-03-13T13:17:17.998Z,15.00
2019-03-13T13:19:48.197Z,18.77
2019-03-13T13:22:20.382Z,13.70
2019-03-13T13:24:52.487Z,14.87
2019-03-13T13:27:21.719Z,14.33
2019-03-13T13:29:50.700Z,15.30
2019-03-13T13:32:23.586Z,11.67
2019-03-13T13:34:52.284Z,11.90
2019-03-13T13:37:23.980Z,15.63
2019-03-13T13:39:52.972Z,16.60
2019-03-13T13:42:22.522Z,16.27
2019-03-13T13:44:51.142Z,12.23
2019-03-13T13:47:20.646Z,16.60
2019-03-13T13:49:59.673Z,12.87
2019-03-13T13:52:22.334Z,14.77
2019-03-13T13:54:51.118Z,13.30
2019-03-13T13:57:19.979Z,10.03
2019-03-13T13:59:48.647Z,13.13
2019-03-13T14:02:17.400Z,15.53
2019-03-13T14:04:46.188Z,12.43
2019-03-13T14:07:14.859Z,11.00
2019-03-13T14:09:43.889Z,12.17
2019-03-13T14:12:13.232Z,10.00
2019-03-13T14:14:42.728Z,8.53
2019-03-13T14:17:11.441Z,11.40
2019-03-13T14:19:40.329Z,8.63
2019-03-13T14:22:10.016Z,6.40
2019-03-13T14:24:40.343Z,12.27
2019-03-13T14:27:14.482Z,10.67
2019-03-13T14:29:39.614Z,9.23
2019-03-13T14:32:10.442Z,11.97
2019-03-13T14:34:39.264Z,7.23
2019-03-13T14:37:10.513Z,9.60
2019-03-13T14:39:39.908Z,7.40
2019-03-13T14:42:10.611Z,7.17
2019-03-13T14:44:42.190Z,9.93
2019-03-13T14:47:11.003Z,7.77
2019-03-13T14:49:39.714Z,10.33
2019-03-13T14:52:08.524Z,12.47
2019-03-13T14:54:37.259Z,8.57
2019-03-13T14:57:07.963Z,10.13
2019-03-13T14:59:37.784Z,10.13
2019-03-13T15:02:06.611Z,9.93
2019-03-13T15:04:39.436Z,8.37
2019-03-13T15:07:08.400Z,8.63
2019-03-13T15:09:39.331Z,10.87
2019-03-13T15:12:10.046Z,7.00
2019-03-13T15:14:38.807Z,12.20
2019-03-13T15:17:08.237Z,8.33
2019-03-13T15:19:37.024Z,10.37
2019-03-13T15:22:05.922Z,18.70
2019-03-13T15:24:35.136Z,8.87
2019-03-13T15:27:07.199Z,14.20
2019-03-13T15:29:36.119Z,11.20
2019-03-13T15:32:05.355Z,15.10
2019-03-13T15:34:37.383Z,12.97
2019-03-13T15:37:07.471Z,19.63
2019-03-13T15:39:42.062Z,14.00
2019-03-13T15:42:08.292Z,8.63
2019-03-13T15:44:38.359Z,10.57
2019-03-13T15:47:09.611Z,15.40
2019-03-13T15:49:39.789Z,12.27
2019-03-13T15:52:08.626Z,18.40
2019-03-13T15:54:38.986Z,13.30
2019-03-13T15:57:08.392Z,15.60
2019-03-13T15:59:39.210Z,15.07
2019-03-13T16:02:07.967Z,14.80
2019-03-13T16:04:36.823Z,14.40
2019-03-13T16:07:06.944Z,19.40
2019-03-13T16:09:38.206Z,18.83
2019-03-13T16:12:08.667Z,19.33
2019-03-13T16:14:39.852Z,24.83
2019-03-13T16:17:08.470Z,14.30
2019-03-13T16:19:37.877Z,15.33
2019-03-13T16:22:07.618Z,16.93
2019-03-13T16:24:36.907Z,25.03
2019-03-13T16:27:06.334Z,14.40
2019-03-13T16:29:36.647Z,21.30
2019-03-13T16:32:05.326Z,16.20
2019-03-13T16:34:34.230Z,24.03
2019-03-13T16:37:03.115Z,17.30
2019-03-13T16:39:32.032Z,20.50
2019-03-13T16:42:00.802Z,25.23
2019-03-13T16:44:33.389Z,22.97
2019-03-13T16:47:02.232Z,21.63
2019-03-13T16:49:31.035Z,16.90
2019-03-13T16:52:00.448Z,21.73
2019-03-13T16:54:29.194Z,20.77
2019-03-13T16:56:58.021Z,22.13
2019-03-13T16:59:28.590Z,21.57
2019-03-13T17:01:57.312Z,25.83
2019-03-13T17:05:05.386Z,15.13
2019-03-13T17:07:34.176Z,20.73
2019-03-13T17:10:04.381Z,20.10
2019-03-13T17:12:33.272Z,20.57
2019-03-13T17:15:07.901Z,18.67
2019-03-13T17:17:36.653Z,14.67
2019-03-13T17:20:08.299Z,23.07
2019-03-13T17:22:37.456Z,22.20
2019-03-13T17:25:09.233Z,21.67
2019-03-13T17:27:39.401Z,22.83
2019-03-13T17:30:24.064Z,19.20
2019-03-13T17:32:52.762Z,18.57
2019-03-13T17:35:24.973Z,20.23
2019-03-13T17:37:53.871Z,25.07
2019-03-13T17:40:37.134Z,19.43
2019-03-13T17:43:06.450Z,23.23
2019-03-13T17:45:32.571Z,18.93
2019-03-13T17:48:01.540Z,23.67
2019-03-13T17:50:30.414Z,25.17
2019-03-13T17:52:59.321Z,28.17
2019-03-13T17:55:30.952Z,21.80
2019-03-13T17:57:59.546Z,19.27
2019-03-13T18:00:38.555Z,22.03
2019-03-13T18:03:08.545Z,21.00
2019-03-13T18:05:37.261Z,22.10
2019-03-13T18:08:05.942Z,24.50
2019-03-13T18:10:34.887Z,26.57
2019-03-13T18:13:06.315Z,23.13
2019-03-13T18:15:35.097Z,21.27
2019-03-13T18:18:03.885Z,26.40
2019-03-13T18:20:33.167Z,23.67
2019-03-13T18:23:02.099Z,30.77
2019-03-13T18:25:30.820Z,24.73
2019-03-13T18:27:59.679Z,27.10
2019-03-13T18:30:33.870Z,24.13
2019-03-13T18:33:02.679Z,28.80
2019-03-13T18:35:31.346Z,26.20
2019-03-13T18:38:01.700Z,28.93
2019-03-13T18:40:30.379Z,27.97
2019-03-13T18:42:59.332Z,29.70
2019-03-13T18:45:32.387Z,36.40
2019-03-13T18:48:02.439Z,29.17
2019-03-13T18:50:32.657Z,29.63
2019-03-13T18:53:01.566Z,25.90
2019-03-13T18:55:32.628Z,24.60
2019-03-13T18:58:02.383Z,29.17
2019-03-13T19:00:32.110Z,29.60
2019-03-13T19:03:01.164Z,32.43
2019-03-13T19:05:31.458Z,33.83
2019-03-13T19:08:00.332Z,32.10
2019-03-13T19:10:35.138Z,31.50
2019-03-13T19:13:04.113Z,30.37
2019-03-13T19:15:32.899Z,30.90
2019-03-13T19:18:01.679Z,31.63
2019-03-13T19:20:33.024Z,27.67
2019-03-13T19:23:09.459Z,31.57
2019-03-13T19:25:38.405Z,31.97
2019-03-13T19:28:07.276Z,29.90
2019-03-13T19:30:37.980Z,28.47
2019-03-13T19:33:07.079Z,31.87
2019-03-13T19:35:35.945Z,28.77
2019-03-13T19:38:13.237Z,34.47
2019-03-13T19:40:41.910Z,34.40
2019-03-13T19:43:10.603Z,41.33
2019-03-13T19:45:41.387Z,36.03
2019-03-13T19:48:10.299Z,30.57
2019-03-13T19:50:40.668Z,31.40
2019-03-13T19:53:09.480Z,34.87
2019-03-13T19:55:42.724Z,32.07
2019-03-13T19:58:11.537Z,29.43
2019-03-13T20:00:40.278Z,33.70
2019-03-13T20:03:19.946Z,31.67
2019-03-13T20:05:48.744Z,29.63
2019-03-13T20:08:17.804Z,31.33
2019-03-13T20:10:46.496Z,32.33
2019-03-13T20:13:15.460Z,33.03
2019-03-13T20:15:45.738Z,28.53
2019-03-13T20:18:14.568Z,30.87
2019-03-13T20:20:43.365Z,31.10
2019-03-13T20:23:14.418Z,30.73
2019-03-13T20:25:43.423Z,35.60
2019-03-13T20:28:15.310Z,29.80
2019-03-13T20:30:43.928Z,27.13
2019-03-13T20:33:15.286Z,30.17
2019-03-13T20:35:43.847Z,33.77
2019-03-13T20:38:12.686Z,38.07
2019-03-13T20:40:41.479Z,32.23
2019-03-13T20:43:10.811Z,35.87
2019-03-13T20:45:39.668Z,36.07
2019-03-13T20:48:08.945Z,32.27
2019-03-13T20:50:38.280Z,32.70
2019-03-13T20:53:07.244Z,33.57
2019-03-13T20:55:37.381Z,33.90
2019-03-13T20:58:06.551Z,35.83
2019-03-13T21:00:36.251Z,26.80
2019-03-13T21:03:06.717Z,31.47
2019-03-13T21:05:36.049Z,29.17
2019-03-13T21:08:04.933Z,27.27
2019-03-13T21:10:34.527Z,31.07
2019-03-13T21:13:03.831Z,28.83
2019-03-13T21:15:34.138Z,27.87
2019-03-13T21:18:06.262Z,33.97
2019-03-13T21:20:36.336Z,31.13
2019-03-13T21:23:06.301Z,25.63
2019-03-13T21:25:37.003Z,30.00
2019-03-13T21:28:07.928Z,31.93
2019-03-13T21:30:36.820Z,35.73
2019-03-13T21:33:05.596Z,35.10
2019-03-13T21:35:35.507Z,35.90
2019-03-13T21:38:05.606Z,28.97
2019-03-13T21:40:34.376Z,34.43
2019-03-13T21:43:04.823Z,35.30
2019-03-13T21:45:41.233Z,29.10
2019-03-13T21:48:03.903Z,35.43
2019-03-13T21:50:32.975Z,36.10
2019-03-13T21:53:03.664Z,33.93
2019-03-13T21:55:33.363Z,38.73
2019-03-13T21:58:03.692Z,34.43
2019-03-13T22:00:32.740Z,46.73
2019-03-13T22:03:01.556Z,43.73
2019-03-13T22:05:31.482Z,36.57
2019-03-13T22:08:01.270Z,32.47
2019-03-13T22:10:30.064Z,35.70
2019-03-13T22:12:59.599Z,37.27
2019-03-13T22:15:30.125Z,34.30
2019-03-13T22:17:58.821Z,36.30
2019-03-13T22:20:27.449Z,31.63
2019-03-13T22:22:56.232Z,35.43
2019-03-13T22:25:24.989Z,39.10
2019-03-13T22:27:54.095Z,41.83
2019-03-13T22:30:24.139Z,39.37
2019-03-13T22:32:52.902Z,36.10
2019-03-13T22:35:21.846Z,38.97
2019-03-13T22:37:52.519Z,35.87
2019-03-13T22:40:21.393Z,41.93
2019-03-13T22:42:50.129Z,36.97
2019-03-13T22:45:20.787Z,38.60
2019-03-13T22:47:49.505Z,36.00
2019-03-13T22:50:19.828Z,43.70
2019-03-13T22:52:48.572Z,34.83
2019-03-13T22:55:19.617Z,43.23
2019-03-13T22:57:50.072Z,39.37
2019-03-13T23:00:52.777Z,41.57
2019-03-13T23:03:24.371Z,41.23
2019-03-13T23:05:55.490Z,36.00
2019-03-13T23:08:25.582Z,41.07
2019-03-13T23:10:54.355Z,36.40
2019-03-13T23:13:23.141Z,36.77
2019-03-13T23:15:53.309Z,42.17
2019-03-13T23:18:22.115Z,36.03
2019-03-13T23:20:50.928Z,31.13
2019-03-13T23:23:19.678Z,44.50
2019-03-13T23:25:49.288Z,36.13
2019-03-13T23:28:18.277Z,33.10
2019-03-13T23:30:47.275Z,38.90
2019-03-13T23:33:16.047Z,36.03
2019-03-13T23:35:45.045Z,38.57
2019-03-13T23:38:13.918Z,41.37
2019-03-13T23:40:42.684Z,34.47
2019-03-13T23:43:11.639Z,40.47
2019-03-13T23:45:40.460Z,36.10
2019-03-13T23:48:12.017Z,33.00
2019-03-13T23:50:41.038Z,39.13
2019-03-13T23:53:09.917Z,40.97
2019-03-13T23:55:39.287Z,32.37
2019-03-13T23:58:11.250Z,35.53
